Date,TemperatureHighF,TemperatureAvgF,TemperatureLowF,DewpointHighF,DewpointAvgF,DewpointLowF,HumidityHigh,HumidityAvg,HumidityLow,PressureMaxIn,PressureMinIn,WindSpeedMaxMPH,WindSpeedAvgMPH,GustSpeedMaxMPH,PrecipitationSumIn
2013-2-1,56.8,56.5,56.3,33.4,33.0,32.3,41,41,40,29.96,28.41,8,4,8,1.19
2013-2-2,55.2,54.8,32.0,49.5,49.2,33.4,81,80,80,34.83,0.00,4,4,4,0.00
2013-2-3,55.2,55.2,55.2,49.5,49.5,49.5,81,81,81,27.20,27.20,4,4,4,0.00
2013-2-4,32.0,32.0,32.0,49.5,49.5,49.5,0,0,100,0.00,40.00,0,0,0,0.00
2013-2-6,32.0,32.0,32.0,49.5,49.5,49.5,0,0,100,0.00,40.00,0,0,0,0.00
2013-2-7,32.0,32.0,32.0,49.5,49.5,49.5,0,0,100,0.00,0.00,0,0,0,0.00
2013-2-8,32.0,32.0,32.0,49.5,49.5,49.5,0,0,100,0.00,0.00,0,0,0,0.00
2013-2-10,55.9,54.7,54.5,42.9,42.3,41.5,64,63,62,33.60,26.72,8,7,8,1.52
2013-2-11,54.7,52.5,50.4,42.3,39.2,36.3,68,60,55,33.97,26.72,22,18,22,0.00
2013-2-12,32.0,32.0,32.0,39.0,39.0,39.0,0,0,100,0.00,0.00,0,0,0,0.00
2013-2-13,32.0,32.0,32.0,39.0,39.0,39.0,0,0,100,0.00,0.00,0,0,0,0.00
2013-2-14,32.0,32.0,32.0,39.0,39.0,39.0,0,0,100,0.00,40.00,0,0,0,0.00
2013-2-16,55.8,54.0,53.8,47.1,45.0,44.3,75,72,71,30.62,26.71,6,2,6,0.00
2013-2-17,53.8,53.8,53.8,44.6,44.6,44.6,71,71,71,26.88,26.88,2,2,4,0.00
2013-2-18,51.1,46.1,45.5,40.4,40.4,39.8,81,80,66,27.68,26.65,14,4,14,0.25
2013-2-19,32.0,32.0,32.0,40.3,40.3,40.3,0,0,100,0.00,0.00,0,0,0,0.25
2013-2-20,32.0,32.0,32.0,40.3,40.3,40.3,0,0,100,0.00,40.00,0,0,0,0.00
2013-2-21,56.3,56.3,55.8,45.9,45.9,45.4,68,68,68,27.39,26.87,2,2,2,0.25
2013-2-22,56.3,34.4,32.0,45.9,45.9,45.9,68,7,68,26.87,26.87,2,0,2,0.25
2013-2-23,60.4,60.3,59.9,51.2,51.2,50.3,72,72,71,30.05,26.68,2,0,2,1.06
2013-2-24,60.3,32.5,32.0,51.3,51.3,51.2,72,1,72,26.68,0.00,0,0,1,1.06